Time;durP1;ratioP1;P1;durP2;ratioP2;P2;SDS_P1;SDS_P2;PMS_P1;PMS_P2;Temp;Humidity;BMP_temperature;BMP_pressure;BME280_temperature;BME280_humidity;BME280_pressure;Samples;Min_cycle;Max_cycle;Signal;HPM_P1;HPM_P2
2024/01/02 00:02:09;;;;;;;5.20;4.30;;;;;;;19.17;44.32;100138.22;5021101;28;20036;-86
2024/01/02 00:04:35;;;;;;;5.45;3.65;;;;;;;19.18;44.28;100134.59;5002101;28;20045;-86
2024/01/02 00:07:00;;;;;;;6.90;4.53;;;;;;;19.00;44.36;100109.47;5005890;28;20045;-87
2024/01/02 00:09:26;;;;;;;5.72;4.13;;;;;;;19.05;44.45;100108.13;5005542;28;20033;-87
2024/01/02 00:11:51;;;;;;;6.57;4.65;;;;;;;19.04;44.31;100104.66;5022668;28;20049;-87
2024/01/02 00:14:17;;;;;;;7.65;5.07;;;;;;;18.99;44.47;100091.22;5020737;28;20041;-84
2024/01/02 00:16:42;;;;;;;32.83;30.38;;;;;;;18.94;44.27;100086.50;5007731;28;20049;-87
2024/01/02 00:19:08;;;;;;;51.22;46.60;;;;;;;19.01;44.36;100092.66;5022164;28;20049;-87
2024/01/02 00:21:33;;;;;;;63.40;57.38;;;;;;;19.07;44.34;100090.25;4988595;28;20041;-87
2024/01/02 00:24:01;;;;;;;171.70;104.82;;;;;;;18.97;44.28;100077.41;5016457;28;20099;-87
2024/01/02 00:26:27;;;;;;;104.38;82.07;;;;;;;19.02;44.39;100082.91;5008737;28;20512;-87
2024/01/02 00:28:52;;;;;;;95.55;78.40;;;;;;;19.02;44.51;100082.91;4988262;28;20038;-88
2024/01/02 00:31:19;;;;;;;160.30;101.13;;;;;;;18.95;44.47;100069.69;4995436;28;20029;-86
2024/01/02 00:33:45;;;;;;;127.72;90.63;;;;;;;18.83;44.29;100046.63;5002704;28;20397;-88
2024/01/02 00:36:11;;;;;;;167.43;104.50;;;;;;;19.02;44.43;100075.00;4990623;28;20142;-85
2024/01/02 00:38:38;;;;;;;131.63;91.65;;;;;;;19.02;44.45;100070.53;5021592;28;20524;-86
2024/01/02 00:41:04;;;;;;;214.27;119.68;;;;;;;18.87;44.48;100038.19;5022081;28;20038;-88
2024/01/02 00:43:30;;;;;;;104.85;82.10;;;;;;;19.01;44.53;100065.44;5016759;28;20790;-85
2024/01/02 00:45:56;;;;;;;209.90;118.28;;;;;;;18.95;44.18;100051.22;5019967;28;20034;-85
2024/01/02 00:48:22;;;;;;;232.15;123.97;;;;;;;18.98;44.46;100042.91;5024104;28;20045;-85
2024/01/02 00:50:47;;;;;;;91.80;63.53;;;;;;;18.96;44.76;100046.75;4993223;28;20802;-84
2024/01/02 00:53:13;;;;;;;118.70;87.88;;;;;;;18.96;44.54;100044.91;4990029;28;20541;-84
2024/01/02 00:55:38;;;;;;;10.70;8.70;;;;;;;18.82;44.50;100005.44;5016559;28;20046;-85
2024/01/02 00:58:04;;;;;;;8.43;7.07;;;;;;;18.84;44.63;100004.25;4992260;28;20481;-84
2024/01/02 01:00:29;;;;;;;46.92;43.15;;;;;;;18.96;44.43;100009.81;5024227;28;20045;-84
2024/01/02 01:02:55;;;;;;;42.03;38.83;;;;;;;18.83;44.28;99984.16;5020525;28;20042;-86
2024/01/02 01:05:21;;;;;;;46.53;43.08;;;;;;;18.95;44.63;99997.63;5002848;28;20053;-85
2024/01/02 01:07:46;;;;;;;45.13;41.72;;;;;;;18.90;44.44;99976.28;5011776;28;20033;-87
2024/01/02 01:10:12;;;;;;;49.50;45.75;;;;;;;18.93;44.40;99976.72;5003038;28;20037;-86
2024/01/02 01:12:37;;;;;;;95.85;74.72;;;;;;;18.81;44.37;99951.88;5041774;28;20045;-87
2024/01/02 01:15:04;;;;;;;52.72;48.42;;;;;;;18.92;44.50;99958.44;5000116;28;20116;-86
2024/01/02 01:17:30;;;;;;;42.72;39.70;;;;;;;18.78;44.32;99939.09;5020710;28;20128;-86
2024/01/02 01:19:56;;;;;;;53.85;49.50;;;;;;;18.85;44.44;99937.31;5000734;28;20096;-85
2024/01/02 01:22:23;;;;;;;57.92;53.03;;;;;;;18.83;44.44;99934.03;5023765;28;20115;-84
2024/01/02 01:24:48;;;;;;;145.80;95.03;;;;;;;18.75;44.55;99925.47;5022658;28;20036;-86
2024/01/02 01:27:14;;;;;;;127.40;91.03;;;;;;;18.87;44.37;99931.84;5022133;28;20041;-85
2024/01/02 01:29:40;;;;;;;53.22;48.88;;;;;;;18.77;44.36;99907.63;5007348;28;20047;-87
2024/01/02 01:32:06;;;;;;;46.05;42.65;;;;;;;18.80;44.51;99909.88;5019933;28;20037;-88
2024/01/02 01:34:32;;;;;;;36.42;33.92;;;;;;;18.76;44.47;99901.53;5006618;28;20044;-88
2024/01/02 01:36:57;;;;;;;26.45;24.65;;;;;;;18.81;44.55;99907.03;5005168;28;20040;-88
2024/01/02 01:39:23;;;;;;;31.05;29.00;;;;;;;18.87;44.53;99902.81;5031939;28;20037;-89
2024/01/02 01:41:48;;;;;;;23.20;21.55;;;;;;;18.86;44.50;99895.94;5025317;28;20041;-89
2024/01/02 01:44:14;;;;;;;16.83;15.57;;;;;;;18.82;44.66;99884.94;4990475;28;20037;-87
2024/01/02 01:46:41;;;;;;;9.02;8.15;;;;;;;18.76;44.55;99871.72;5023629;28;20033;-87
2024/01/02 01:49:09;;;;;;;9.02;6.60;;;;;;;18.61;44.72;99840.97;5023540;28;20044;-88
2024/01/02 01:51:36;;;;;;;6.50;5.18;;;;;;;18.73;44.56;99845.75;5024005;28;20470;-89
2024/01/02 01:54:03;;;;;;;7.68;5.72;;;;;;;18.66;44.55;99824.59;5038238;28;20041;-88
2024/01/02 01:56:33;;;;;;;11.27;7.88;;;;;;;18.81;44.26;99837.66;5024456;28;20538;-89
2024/01/02 01:59:00;;;;;;;8.70;7.00;;;;;;;18.65;44.60;99818.50;5023621;28;20034;-88
2024/01/02 02:01:28;;;;;;;39.58;36.63;;;;;;;18.73;44.64;99820.19;5037709;28;20476;-87
2024/01/02 02:03:56;;;;;;;66.20;59.90;;;;;;;18.76;44.73;99821.59;5022233;28;20853;-87
2024/01/02 02:06:22;;;;;;;66.93;60.55;;;;;;;18.76;44.56;99809.22;5023783;28;20099;-87
2024/01/02 02:08:49;;;;;;;72.38;65.07;;;;;;;18.51;44.62;99758.00;4991391;28;20548;-88
2024/01/02 02:11:15;;;;;;;58.22;53.22;;;;;;;18.76;44.67;99789.97;5023656;28;20558;-88
2024/01/02 02:13:41;;;;;;;60.45;54.95;;;;;;;18.64;44.61;99772.06;5025207;28;20045;-88
2024/01/02 02:16:07;;;;;;;58.95;53.83;;;;;;;18.74;44.55;99779.59;5005121;28;20037;-87
2024/01/02 02:18:33;;;;;;;68.28;61.67;;;;;;;18.72;44.56;99771.09;5015793;28;20418;-89
2024/01/02 02:20:58;;;;;;;65.00;58.53;;;;;;;18.63;44.53;99748.53;5000524;28;20379;-87
2024/01/02 02:23:24;;;;;;;92.10;75.90;;;;;;;18.76;44.64;99761.75;5032514;28;20528;-87
2024/01/02 02:25:49;;;;;;;150.15;98.18;;;;;;;18.62;44.74;99731.84;5021859;28;20466;-88
2024/01/02 02:28:15;;;;;;;68.18;61.58;;;;;;;18.68;44.73;99736.38;5004256;28;20103;-87
2024/01/02 02:30:40;;;;;;;52.17;47.95;;;;;;;18.60;44.76;99711.97;5027215;28;20494;-88
2024/01/02 02:33:06;;;;;;;66.78;60.33;;;;;;;18.68;44.71;99725.84;5009198;28;20092;-87
2024/01/02 02:35:31;;;;;;;43.03;39.70;;;;;;;18.52;44.59;99685.81;5021463;28;20037;-86
2024/01/02 02:37:57;;;;;;;56.95;52.05;;;;;;;18.64;44.68;99695.59;5026394;28;20100;-88
2024/01/02 02:40:23;;;;;;;79.22;70.88;;;;;;;18.72;44.74;99697.25;5012905;28;20046;-87
2024/01/02 02:42:49;;;;;;;55.65;50.45;;;;;;;18.67;44.75;99668.84;5021293;28;20740;-88
2024/01/02 02:45:14;;;;;;;43.88;39.85;;;;;;;18.69;44.59;99674.72;5011891;28;20156;-88
2024/01/02 02:47:40;;;;;;;23.70;21.42;;;;;;;18.67;44.61;99674.13;5025955;28;20048;-88
2024/01/02 02:50:06;;;;;;;159.00;96.45;;;;;;;18.71;44.50;99664.78;5023150;28;20038;-88
2024/01/02 02:52:32;;;;;;;87.88;76.85;;;;;;;18.68;44.51;99649.38;5026936;28;20594;-88
2024/01/02 02:54:59;;;;;;;63.97;58.08;;;;;;;18.79;44.67;99657.69;5024300;28;20064;-88
2024/01/02 02:57:24;;;;;;;65.60;59.55;;;;;;;18.65;44.49;99625.22;5025918;28;20046;-88
2024/01/02 02:59:50;;;;;;;54.83;50.35;;;;;;;18.76;44.71;99634.34;5019581;28;20095;-87
2024/01/02 03:02:16;;;;;;;77.38;69.00;;;;;;;18.66;44.64;99618.91;5010981;28;20572;-88
2024/01/02 03:04:42;;;;;;;33.95;31.00;;;;;;;18.63;44.75;99609.59;5010686;28;20057;-87
2024/01/02 03:07:09;;;;;;;34.63;31.75;;;;;;;18.69;44.65;99608.00;5010556;28;20049;-87
2024/01/02 03:09:35;;;;;;;55.40;50.35;;;;;;;18.70;44.52;99593.78;5018041;28;20048;-88
2024/01/02 03:12:00;;;;;;;104.60;82.32;;;;;;;18.70;44.42;99593.78;5008663;28;20038;-88
2024/01/02 03:14:26;;;;;;;1.33;1.23;;;;;;;18.52;44.75;99548.72;5008792;28;20038;-89
2024/01/02 03:16:52;;;;;;;1.17;0.95;;;;;;;18.60;44.53;99567.78;5012044;28;20037;-88
2024/01/02 03:19:17;;;;;;;69.75;62.72;;;;;;;18.66;44.61;99563.53;4990825;28;20064;-88
2024/01/02 03:21:43;;;;;;;136.93;97.07;;;;;;;18.63;44.70;99545.50;5028820;28;20057;-88
2024/01/02 03:24:08;;;;;;;109.65;85.60;;;;;;;18.77;44.41;99562.13;5025178;28;20025;-86
2024/01/02 03:26:34;;;;;;;147.70;100.30;;;;;;;18.76;44.38;99542.06;4999927;28;20045;-88
2024/01/02 03:28:59;;;;;;;209.65;118.93;;;;;;;18.76;44.24;99526.22;5013967;28;20417;-88
2024/01/02 03:31:25;;;;;;;220.48;122.30;;;;;;;18.85;44.63;99544.31;5025311;28;20780;-88
2024/01/02 03:33:50;;;;;;;216.93;120.47;;;;;;;18.71;44.29;99509.22;5018516;28;20374;-88
2024/01/02 03:36:20;;;;;;;223.55;122.35;;;;;;;18.74;44.50;99500.06;5009412;28;20041;-87
2024/01/02 03:38:47;;;;;;;117.90;60.55;;;;;;;18.75;44.37;99496.41;5026579;28;20067;-88
2024/01/02 03:41:12;;;;;;;173.02;106.70;;;;;;;18.88;44.42;99496.41;5008574;28;20635;-88
2024/01/02 03:43:38;;;;;;;2.05;0.95;;;;;;;18.75;44.19;99469.25;5023396;28;20097;-88
2024/01/02 03:46:04;;;;;;;1.38;1.00;;;;;;;18.85;44.48;99477.53;5008346;28;20241;-88
2024/01/02 03:48:29;;;;;;;132.70;92.53;;;;;;;18.70;44.39;99440.84;5010923;28;20540;-88
2024/01/02 03:50:55;;;;;;;167.98;104.35;;;;;;;18.70;44.43;99432.94;4992649;28;20036;-88
2024/01/02 03:53:21;;;;;;;166.88;105.28;;;;;;;18.83;44.56;99442.63;4994433;28;20044;-88
2024/01/02 03:55:46;;;;;;;141.30;97.10;;;;;;;18.74;44.54;99420.97;5023960;28;20428;-88
2024/01/02 03:58:12;;;;;;;92.53;78.68;;;;;;;18.81;44.44;99418.28;4996921;28;20718;-87
2024/01/02 04:00:39;;;;;;;121.82;88.95;;;;;;;18.60;44.43;99382.41;5008368;28;20397;-88
2024/01/02 04:03:06;;;;;;;68.22;53.25;;;;;;;18.73;44.60;99390.34;5007604;28;20045;-86
2024/01/02 04:05:31;;;;;;;110.97;81.65;;;;;;;18.78;44.58;99384.44;5039098;28;20037;-88
2024/01/02 04:07:57;;;;;;;50.08;42.20;;;;;;;18.67;44.62;99370.88;5023559;28;20041;-88
2024/01/02 04:10:22;;;;;;;38.58;34.53;;;;;;;18.61;44.66;99350.56;5007568;28;20070;-88
2024/01/02 04:12:48;;;;;;;41.58;37.10;;;;;;;18.66;44.54;99347.34;4976724;28;20052;-88
2024/01/02 04:15:14;;;;;;;77.57;68.43;;;;;;;18.66;44.67;99329.69;4989188;28;20056;-89
2024/01/02 04:17:39;;;;;;;98.90;79.38;;;;;;;18.48;44.50;99299.69;5010459;28;20038;-89
2024/01/02 04:20:05;;;;;;;95.63;78.45;;;;;;;18.61;44.53;99304.94;5022452;28;20037;-88
2024/01/02 04:22:31;;;;;;;72.50;65.15;;;;;;;18.66;44.59;99319.13;5026583;28;20044;-89
2024/01/02 04:24:57;;;;;;;80.57;71.63;;;;;;;18.63;44.40;99311.66;5024405;28;20136;-90
2024/01/02 04:27:23;;;;;;;77.60;69.20;;;;;;;18.61;44.56;99303.13;5043651;28;20692;-89
2024/01/02 04:29:49;;;;;;;80.88;71.93;;;;;;;18.62;44.49;99304.72;5024706;28;20596;-89
2024/01/02 04:32:15;;;;;;;99.40;80.40;;;;;;;18.65;44.51;99304.34;5042406;28;20040;-88
2024/01/02 04:34:41;;;;;;;84.35;73.93;;;;;;;18.59;44.61;99284.06;5026591;28;20033;-88
2024/01/02 04:37:06;;;;;;;65.47;59.25;;;;;;;18.64;44.53;99281.63;5028662;28;20107;-90
2024/01/02 04:39:32;;;;;;;107.20;82.43;;;;;;;18.62;44.52;99285.47;5022909;28;20056;-87
2024/01/02 04:41:58;;;;;;;133.20;93.68;;;;;;;18.69;44.28;99265.22;4995825;28;20038;-88
2024/01/02 04:44:23;;;;;;;128.05;89.00;;;;;;;18.75;44.19;99274.91;5023217;28;20406;-89
2024/01/02 04:46:49;;;;;;;148.02;98.75;;;;;;;18.74;44.25;99259.28;5021099;28;20491;-88
2024/01/02 04:49:14;;;;;;;192.60;114.15;;;;;;;18.79;44.21;99254.19;5023695;28;20155;-90
2024/01/02 04:51:40;;;;;;;1.10;0.85;;;;;;;18.75;44.29;99237.19;5024652;28;20512;-89
2024/01/02 04:54:07;;;;;;;0.82;0.68;;;;;;;18.82;44.06;99249.28;5025534;28;20037;-89
2024/01/02 04:56:33;;;;;;;1.52;0.85;;;;;;;18.70;44.25;99229.91;5022849;28;20064;-90
2024/01/02 04:58:59;;;;;;;1.40;1.30;;;;;;;18.81;44.38;99241.59;5022581;28;20128;-88
2024/01/02 05:01:24;;;;;;;2.40;0.85;;;;;;;18.71;44.37;99223.63;5013060;28;20038;-89
2024/01/02 05:03:50;;;;;;;1.67;1.05;;;;;;;18.68;44.47;99211.66;5028067;28;20602;-89
2024/01/02 05:06:15;;;;;;;1.52;1.05;;;;;;;18.53;44.38;99191.84;5007176;28;20516;-89
2024/01/02 05:08:41;;;;;;;0.88;0.75;;;;;;;18.64;44.55;99207.81;5010655;28;20103;-89
2024/01/02 05:11:06;;;;;;;1.30;1.08;;;;;;;18.54;44.44;99172.38;5006324;28;20033;-89
2024/01/02 05:13:32;;;;;;;1.02;0.80;;;;;;;18.78;44.45;99203.28;5026920;28;20045;-88
2024/01/02 05:15:57;;;;;;;1.73;0.95;;;;;;;18.75;44.35;99192.34;5019865;28;20049;-88
2024/01/02 05:18:23;;;;;;;1.55;0.90;;;;;;;18.64;44.40;99164.81;5009713;28;20068;-89
2024/01/02 05:20:48;;;;;;;1.10;0.60;;;;;;;18.67;44.53;99157.31;5022795;28;20030;-88
2024/01/02 05:23:14;;;;;;;1.25;0.80;;;;;;;18.68;44.50;99164.22;5038539;28;20064;-88
2024/01/02 05:25:41;;;;;;;2.45;1.13;;;;;;;18.71;44.42;99166.41;5012385;28;20037;-90
2024/01/02 05:28:06;;;;;;;1.63;0.60;;;;;;;18.62;44.44;99156.28;5021984;28;20037;-88
2024/01/02 05:30:32;;;;;;;1.80;0.90;;;;;;;18.63;44.53;99157.94;5035196;28;20048;-88
2024/01/02 05:32:57;;;;;;;0.77;0.77;;;;;;;18.68;44.53;99158.13;5008956;28;20037;-89
2024/01/02 05:35:23;;;;;;;3.25;1.08;;;;;;;18.62;44.41;99146.53;5006617;28;20096;-88
2024/01/02 05:37:48;;;;;;;1.45;0.85;;;;;;;18.67;44.47;99148.56;5004019;28;20636;-89
2024/01/02 05:40:14;;;;;;;0.98;0.73;;;;;;;18.56;44.63;99133.41;5022206;28;20536;-89
2024/01/02 05:42:39;;;;;;;0.93;0.82;;;;;;;18.63;44.53;99134.19;5022018;28;20029;-89
2024/01/02 05:45:05;;;;;;;1.33;1.20;;;;;;;18.67;44.77;99138.03;5008417;28;20045;-87
2024/01/02 05:47:31;;;;;;;1.25;0.90;;;;;;;18.54;44.64;99114.38;5018916;28;20042;-90
2024/01/02 05:49:56;;;;;;;1.98;1.00;;;;;;;18.59;44.59;99104.00;5023111;28;20033;-87
2024/01/02 05:52:22;;;;;;;1.27;1.20;;;;;;;18.52;44.62;99104.03;5008127;28;20037;-89
2024/01/02 05:54:48;;;;;;;1.25;0.80;;;;;;;18.43;44.54;99086.84;5008441;28;20801;-88
2024/01/02 05:57:13;;;;;;;0.77;0.77;;;;;;;18.62;44.47;99101.72;5024923;28;20041;-87
2024/01/02 05:59:39;;;;;;;0.70;0.70;;;;;;;18.54;44.63;99085.38;5012625;28;20038;-88
2024/01/02 06:02:04;;;;;;;1.23;1.00;;;;;;;18.65;44.40;99089.97;5021853;28;20041;-86
2024/01/02 06:04:30;;;;;;;1.10;0.95;;;;;;;18.56;44.42;99064.88;5024454;28;20054;-89
2024/01/02 06:06:56;;;;;;;1.88;0.63;;;;;;;18.59;44.57;99064.44;4989915;28;20414;-88
2024/01/02 06:09:23;;;;;;;1.05;0.65;;;;;;;18.65;44.51;99069.69;5027126;28;20044;-88
2024/01/02 06:11:49;;;;;;;1.13;0.90;;;;;;;18.55;44.47;99061.44;5038206;28;20030;-88
2024/01/02 06:14:15;;;;;;;1.02;0.82;;;;;;;18.50;44.51;99042.81;5027886;28;20041;-87
2024/01/02 06:16:42;;;;;;;0.63;0.55;;;;;;;18.45;44.45;99037.38;4976425;28;20026;-88
2024/01/02 06:19:07;;;;;;;0.35;0.35;;;;;;;18.65;44.62;99061.78;5026259;28;20042;-88
2024/01/02 06:21:33;;;;;;;1.42;0.80;;;;;;;18.58;44.45;99047.00;5010528;28;20535;-88
2024/01/02 06:23:58;;;;;;;2.05;0.77;;;;;;;18.39;44.57;99015.31;5017953;28;20034;-88
2024/01/02 06:26:24;;;;;;;0.70;0.65;;;;;;;18.60;44.37;99040.50;5011560;28;20045;-88
2024/01/02 06:28:49;;;;;;;1.20;0.90;;;;;;;18.52;44.45;99027.59;5011446;28;20049;-87
2024/01/02 06:31:15;;;;;;;0.77;0.50;;;;;;;18.60;44.42;99037.88;5015728;28;20132;-88
2024/01/02 06:33:44;;;;;;;0.90;0.73;;;;;;;18.64;44.43;99033.00;5026305;28;20037;-87
2024/01/02 06:36:10;;;;;;;0.75;0.63;;;;;;;18.58;44.29;99024.09;5026158;28;20056;-89
2024/01/02 06:38:36;;;;;;;141.80;96.03;;;;;;;18.70;44.38;99050.63;5038538;28;20778;-88
2024/01/02 06:41:02;;;;;;;164.20;104.28;;;;;;;18.57;44.34;99019.03;5010898;28;20130;-88
2024/01/02 06:43:28;;;;;;;158.82;102.13;;;;;;;18.54;44.53;99015.00;5029170;28;20121;-86
2024/01/02 06:45:54;;;;;;;106.07;75.80;;;;;;;18.63;44.37;99026.13;5009314;28;20600;-87
2024/01/02 06:48:20;;;;;;;77.38;63.63;;;;;;;18.44;44.50;99001.50;5037795;28;20061;-87
2024/01/02 06:50:45;;;;;;;86.00;73.38;;;;;;;18.68;44.34;99040.28;5023658;28;20041;-87
2024/01/02 06:53:11;;;;;;;121.40;89.10;;;;;;;18.62;44.42;99027.91;5005098;28;20095;-86
2024/01/02 06:55:36;;;;;;;124.88;89.93;;;;;;;18.48;44.49;98996.59;5023096;28;20056;-86
2024/01/02 06:58:02;;;;;;;0.50;0.50;;;;;;;18.34;44.38;98982.72;5007938;28;20037;-87
2024/01/02 07:00:28;;;;;;;0.68;0.55;;;;;;;18.56;44.46;99015.59;5015050;28;20045;-86
2024/01/02 07:02:54;;;;;;;1.48;1.10;;;;;;;18.53;44.41;99004.69;5018009;28;20053;-86
2024/01/02 07:05:19;;;;;;;0.95;0.47;;;;;;;18.43;44.49;98990.16;5003322;28;20717;-87
2024/01/02 07:07:46;;;;;;;0.85;0.60;;;;;;;18.58;44.57;99010.91;5022744;28;20049;-88
2024/01/02 07:10:11;;;;;;;0.55;0.50;;;;;;;18.62;44.53;99020.00;5029428;28;20056;-87
2024/01/02 07:12:37;;;;;;;1.33;0.85;;;;;;;18.38;44.48;98984.72;5021579;28;20034;-87
2024/01/02 07:15:05;;;;;;;0.63;0.50;;;;;;;18.72;44.33;99014.28;5022039;28;20068;-87
2024/01/02 07:17:31;;;;;;;0.65;0.65;;;;;;;18.88;44.01;99013.75;5020117;28;20164;-89
2024/01/02 07:19:58;;;;;;;1.75;0.63;;;;;;;18.88;43.84;98994.47;5039845;28;20497;-88
2024/01/02 07:22:24;;;;;;;0.80;0.40;;;;;;;18.85;43.73;98974.63;5021643;28;20096;-87
2024/01/02 07:24:49;;;;;;;1.15;0.80;;;;;;;18.84;44.13;98990.63;5003098;28;20074;-88
2024/01/02 07:27:15;;;;;;;1.10;0.60;;;;;;;18.96;44.23;99012.66;5021991;28;20042;-89
2024/01/02 07:29:41;;;;;;;1.33;0.93;;;;;;;19.05;44.23;99015.81;5001308;28;20773;-87
2024/01/02 07:32:07;;;;;;;0.75;0.75;;;;;;;18.95;44.18;98998.66;5020890;28;20112;-87
2024/01/02 07:34:32;;;;;;;0.85;0.50;;;;;;;19.14;44.08;99010.03;5022929;28;20477;-90
2024/01/02 07:36:58;;;;;;;0.80;0.60;;;;;;;19.01;44.13;98987.22;5038119;28;20143;-87
2024/01/02 07:39:24;;;;;;;1.60;0.55;;;;;;;19.17;44.06;99001.69;5018585;28;20457;-87
2024/01/02 07:41:50;;;;;;;0.40;0.40;;;;;;;19.23;43.91;99016.66;5008029;28;20038;-88
2024/01/02 07:44:15;;;;;;;0.47;0.30;;;;;;;18.98;43.86;98978.94;5023167;28;20437;-87
2024/01/02 07:46:41;;;;;;;0.68;0.60;;;;;;;19.30;43.83;99019.22;5004055;28;20037;-87
2024/01/02 07:49:06;;;;;;;1.67;0.70;;;;;;;19.09;43.72;98988.78;5020852;28;20053;-85
2024/01/02 07:51:32;;;;;;;0.77;0.60;;;;;;;19.19;43.94;99001.44;5014509;28;20034;-89
2024/01/02 07:53:57;;;;;;;0.95;0.88;;;;;;;19.34;43.87;99025.66;5007978;28;20041;-86
2024/01/02 07:56:23;;;;;;;0.98;0.70;;;;;;;19.23;43.80;99006.09;5033710;28;20038;-85
2024/01/02 07:58:48;;;;;;;0.57;0.52;;;;;;;19.28;43.80;99003.59;5019030;28;20033;-85
2024/01/02 08:01:16;;;;;;;0.45;0.45;;;;;;;19.29;43.72;98999.13;5005214;28;20048;-87
2024/01/02 08:03:42;;;;;;;0.82;0.50;;;;;;;19.23;43.97;98997.38;5020100;28;20049;-88
2024/01/02 08:06:07;;;;;;;0.30;0.30;;;;;;;19.33;43.82;99029.31;5020689;28;20048;-87
2024/01/02 08:08:33;;;;;;;0.68;0.68;;;;;;;19.21;43.83;99023.97;5017784;28;20042;-85
2024/01/02 08:10:58;;;;;;;0.85;0.57;;;;;;;19.13;43.85;99000.50;5031613;28;20042;-85
2024/01/02 08:13:25;;;;;;;0.43;0.30;;;;;;;19.21;43.91;99016.06;5002491;28;20045;-87
2024/01/02 08:15:50;;;;;;;3.40;3.20;;;;;;;19.17;43.94;98998.22;5019069;28;20265;-88
2024/01/02 08:18:16;;;;;;;6.20;4.88;;;;;;;19.30;43.95;99024.47;5016105;28;20095;-87
2024/01/02 08:20:41;;;;;;;18.02;16.27;;;;;;;19.32;43.90;99031.16;5018148;28;20030;-86
2024/01/02 08:23:07;;;;;;;16.30;14.65;;;;;;;19.26;43.72;99020.69;5020203;28;20040;-89
2024/01/02 08:25:33;;;;;;;31.33;28.67;;;;;;;19.12;43.96;98998.91;4990064;28;20034;-87
2024/01/02 08:27:59;;;;;;;46.22;42.53;;;;;;;19.23;43.61;99000.81;5017743;28;20457;-86
2024/01/02 08:30:25;;;;;;;57.58;52.45;;;;;;;19.09;43.62;98985.34;5007558;28;20073;-86
2024/01/02 08:32:50;;;;;;;57.75;52.80;;;;;;;19.26;43.67;99018.03;5004158;28;20033;-86
2024/01/02 08:35:16;;;;;;;82.57;72.78;;;;;;;19.18;43.77;99008.56;5022458;28;20029;-88
2024/01/02 08:37:43;;;;;;;122.97;89.68;;;;;;;19.37;43.67;99040.25;5003993;28;20041;-84
2024/01/02 08:40:10;;;;;;;197.68;115.25;;;;;;;19.33;43.83;99038.03;5019967;28;20067;-85
2024/01/02 08:42:36;;;;;;;125.50;90.18;;;;;;;19.26;43.74;99018.03;5038061;28;20143;-86
2024/01/02 08:45:03;;;;;;;0.43;0.43;;;;;;;19.29;43.62;99020.22;5020620;28;20784;-86
2024/01/02 08:47:29;;;;;;;0.68;0.55;;;;;;;19.33;43.66;99022.22;5011869;28;20033;-86
2024/01/02 08:49:54;;;;;;;10.93;5.70;;;;;;;19.30;43.57;99024.47;5017823;28;20485;-85
2024/01/02 08:52:20;;;;;;;39.65;21.00;;;;;;;19.21;43.63;99002.03;5016264;28;20045;-85
2024/01/02 08:54:45;;;;;;;0.63;0.60;;;;;;;19.35;43.70;99016.72;5022392;28;20047;-87
2024/01/02 08:57:11;;;;;;;0.57;0.57;;;;;;;19.48;43.50;99047.44;5034524;28;20045;-87
2024/01/02 08:59:37;;;;;;;0.47;0.30;;;;;;;19.40;43.71;99039.81;5020679;28;20050;-92
2024/01/02 09:02:02;;;;;;;3.15;0.32;;;;;;;19.39;43.60;99041.66;5035947;28;20128;-89
2024/01/02 09:04:28;;;;;;;0.50;0.50;;;;;;;19.50;43.74;99048.03;5005005;28;20087;-90
2024/01/02 09:06:53;;;;;;;0.32;0.32;;;;;;;19.37;43.98;99034.97;5006015;28;20061;-89
2024/01/02 09:09:19;;;;;;;0.47;0.40;;;;;;;19.45;43.80;99055.81;5033843;28;20055;-86
2024/01/02 09:11:46;;;;;;;0.80;0.50;;;;;;;19.47;43.78;99053.75;5016907;28;20045;-86
2024/01/02 09:14:11;;;;;;;0.88;0.68;;;;;;;19.44;43.79;99041.00;5023638;28;20095;-85
2024/01/02 09:16:38;;;;;;;0.45;0.45;;;;;;;19.37;43.72;99038.41;5033055;28;20065;-87
2024/01/02 09:19:04;;;;;;;5.28;1.27;;;;;;;19.51;44.35;99061.00;5019207;28;20041;-87
2024/01/02 09:21:30;;;;;;;1.40;0.80;;;;;;;19.40;44.46;99047.75;5034365;28;20076;-89
2024/01/02 09:23:56;;;;;;;6.10;1.35;;;;;;;19.44;44.26;99054.19;5014166;28;20107;-88
2024/01/02 09:26:25;;;;;;;4.10;0.98;;;;;;;19.28;44.37;99034.47;5024337;28;20048;-89
2024/01/02 09:28:51;;;;;;;154.23;100.85;;;;;;;19.40;44.27;99048.56;5005135;28;20072;-88
2024/01/02 09:31:18;;;;;;;58.97;47.78;;;;;;;19.40;44.29;99051.19;5020382;28;20041;-89
2024/01/02 09:33:44;;;;;;;2.08;0.70;;;;;;;19.44;44.15;99056.84;5019466;28;20501;-89
2024/01/02 09:36:10;;;;;;;1.98;1.05;;;;;;;19.37;44.07;99062.16;5029002;28;20124;-89
2024/01/02 09:38:39;;;;;;;0.55;0.55;;;;;;;19.41;44.08;99065.19;5029906;28;20489;-88
2024/01/02 09:41:14;;;;;;;1.02;0.68;;;;;;;19.43;44.18;99073.69;5000444;28;20076;-88
2024/01/02 09:43:55;;;;;;;2.10;0.80;;;;;;;19.42;44.23;99072.09;5041759;28;20044;-89
2024/01/02 09:46:49;;;;;;;1.85;1.23;;;;;;;19.33;44.15;99056.53;5013695;28;20532;-90
2024/01/02 09:49:31;;;;;;;1.10;0.98;;;;;;;19.43;44.12;99068.41;5022951;28;20370;-88
2024/01/02 09:52:26;;;;;;;1.70;0.80;;;;;;;19.40;44.25;99069.66;5029161;28;20029;-88
2024/01/02 09:55:18;;;;;;;2.05;0.85;;;;;;;19.38;44.07;99068.25;5026245;28;20044;-89
2024/01/02 09:57:49;;;;;;;3.55;0.93;;;;;;;19.41;44.28;99075.75;5024909;28;20474;-87
2024/01/02 10:00:27;;;;;;;10.05;7.97;;;;;;;19.40;44.25;99079.41;5020775;28;20536;-83
2024/01/02 10:02:55;;;;;;;57.97;52.55;;;;;;;19.41;44.26;99086.31;5021511;28;20069;-84
2024/01/02 10:05:42;;;;;;;33.00;30.58;;;;;;;19.46;44.13;99079.34;5010759;28;20056;-86
2024/01/02 10:08:16;;;;;;;29.27;26.73;;;;;;;19.47;44.09;99082.78;5026809;28;20083;-85
2024/01/02 10:11:03;;;;;;;36.47;33.60;;;;;;;19.39;44.02;99068.06;5022533;28;20041;-83
2024/01/02 10:14:06;;;;;;;44.85;37.47;;;;;;;19.50;44.06;99090.25;5020496;28;20037;-84
2024/01/02 10:16:32;;;;;;;17.15;15.48;;;;;;;19.50;44.12;99087.63;5015563;28;20381;-85
2024/01/02 10:19:19;;;;;;;20.02;17.88;;;;;;;19.46;44.02;99081.97;5022045;28;20026;-85
2024/01/02 10:22:24;;;;;;;2.65;1.30;;;;;;;19.16;44.40;99055.47;5019198;28;20080;-86
2024/01/02 10:25:12;;;;;;;3.13;1.80;;;;;;;19.44;44.55;99073.47;5020756;28;20033;-87
2024/01/02 10:28:05;;;;;;;1.98;1.50;;;;;;;19.49;44.25;99081.53;5017847;28;20498;-85
2024/01/02 10:30:47;;;;;;;44.47;40.63;;;;;;;19.61;44.19;99090.38;5019659;28;20486;-85
2024/01/02 10:33:53;;;;;;;69.20;61.72;;;;;;;19.66;44.04;99084.44;5019368;28;20039;-84
2024/01/02 10:36:22;;;;;;;43.28;39.35;;;;;;;19.70;44.06;99084.78;4927112;28;20174;-83
2024/01/02 10:39:17;;;;;;;50.60;45.80;;;;;;;19.71;44.03;99081.94;5007607;28;20119;-85
2024/01/02 10:42:27;;;;;;;4.38;2.03;;;;;;;19.69;44.05;99077.91;5019698;28;20353;-85
2024/01/02 10:44:52;;;;;;;;;;;;;;;19.71;44.14;99086.41;4993230;28;20095;-86
2024/01/02 10:47:24;;;;;;;2.22;1.60;;;;;;;19.70;44.31;99098.00;4994751;28;20316;-85
2024/01/02 10:49:59;;;;;;;3.15;1.75;;;;;;;19.56;43.92;99066.44;5037428;28;20559;-85
2024/01/02 10:52:30;;;;;;;4.43;1.70;;;;;;;19.77;43.97;99088.19;5020079;28;20076;-85
2024/01/02 10:55:09;;;;;;;1.60;0.85;;;;;;;19.76;43.97;99076.00;5021767;28;20042;-85
2024/01/02 10:57:45;;;;;;;3.63;1.55;;;;;;;19.71;43.73;99057.34;5020477;28;20029;-87
2024/01/02 11:00:22;;;;;;;3.72;1.60;;;;;;;19.83;43.87;99071.44;5032694;28;20045;-85
2024/01/02 11:02:58;;;;;;;2.50;1.50;;;;;;;19.62;43.83;99035.75;5017732;28;20038;-85
2024/01/02 11:05:44;;;;;;;3.40;1.65;;;;;;;19.91;43.78;99079.84;5065161;27;20636;-67
2024/01/02 11:08:21;;;;;;;4.57;1.65;;;;;;;19.94;43.84;99070.72;5062867;28;20695;-67
2024/01/02 11:10:57;;;;;;;4.57;1.67;;;;;;;19.92;43.67;99073.53;5031966;28;20033;-67
2024/01/02 11:13:26;;;;;;;2.00;1.27;;;;;;;19.95;43.82;99066.22;5042338;28;20091;-67
2024/01/02 11:16:19;;;;;;;5.03;2.00;;;;;;;19.98;43.67;99058.66;5057433;28;20044;-66
2024/01/02 11:18:48;;;;;;;2.17;1.38;;;;;;;19.88;44.02;99050.44;5050871;28;20649;-67
2024/01/02 11:21:26;;;;;;;4.10;1.65;;;;;;;19.94;43.69;99048.78;5058945;28;20147;-67
2024/01/02 11:23:54;;;;;;;3.50;1.88;;;;;;;19.98;43.78;99048.09;5057720;28;20121;-66
2024/01/02 11:26:24;;;;;;;4.07;1.48;;;;;;;19.92;43.77;99041.03;5060054;28;20468;-67
2024/01/02 11:28:51;;;;;;;3.38;1.60;;;;;;;19.84;43.80;99028.97;5058441;28;20468;-67